UAE815 OMDB-OERK
Flight info
| Callsign | UAE815 |
|---|---|
| Flight time | N/A |
| Altitude | 28000 |
| Route | ANVIX R401 GIDIS G783 RIGIL M628 AMBAG M321 NAGUB |
| Aircraft | B77W/H-SDE1E2E3FGHIJ2J3J4J5M1RWXY/LB1D1 |
Departure
| Time | 2026-04-26 22:26 |
|---|---|
| Airport | Dubai International Airport (OMDB) |
Arrival
| Time | N/A |
|---|---|
| Airport | King Khalid International Airport (OERK) |
| Time | Latitude | Longitude | Altitude | Speed | Heading |
|---|---|---|---|---|---|
| 2026-04-26 21:57 | 25.25048 | 55.35630 | 32 ft | 0 kts | 31° |
| 2026-04-26 22:11 | 25.25038 | 55.35623 | 26 ft | 2 kts | 23° |
| 2026-04-26 22:11 | 25.25022 | 55.35616 | 27 ft | 2 kts | 15° |
| 2026-04-26 22:11 | 25.25012 | 55.35613 | 30 ft | 2 kts | 8° |
| 2026-04-26 22:11 | 25.24990 | 55.35613 | 32 ft | 2 kts | 348° |
| 2026-04-26 22:12 | 25.24974 | 55.35618 | 32 ft | 2 kts | 333° |
| 2026-04-26 22:12 | 25.24964 | 55.35624 | 32 ft | 2 kts | 324° |
| 2026-04-26 22:12 | 25.24952 | 55.35636 | 32 ft | 2 kts | 313° |
| 2026-04-26 22:12 | 25.24941 | 55.35649 | 32 ft | 2 kts | 306° |
| 2026-04-26 22:13 | 25.24936 | 55.35657 | 30 ft | 1 kts | 304° |
| 2026-04-26 22:14 | 25.24955 | 55.35625 | 32 ft | 10 kts | 302° |
| 2026-04-26 22:15 | 25.24993 | 55.35560 | 31 ft | 10 kts | 302° |
| 2026-04-26 22:15 | 25.25030 | 55.35495 | 29 ft | 10 kts | 302° |
| 2026-04-26 22:15 | 25.25067 | 55.35430 | 29 ft | 10 kts | 301° |
| 2026-04-26 22:15 | 25.25103 | 55.35364 | 27 ft | 11 kts | 301° |
| 2026-04-26 22:16 | 25.25150 | 55.35284 | 31 ft | 14 kts | 304° |
| 2026-04-26 22:16 | 25.25220 | 55.35183 | 29 ft | 18 kts | 305° |
| 2026-04-26 22:16 | 25.25291 | 55.35058 | 30 ft | 19 kts | 301° |
| 2026-04-26 22:16 | 25.25363 | 55.34936 | 32 ft | 19 kts | 311° |
| 2026-04-26 22:17 | 25.25483 | 55.34907 | 29 ft | 19 kts | 25° |
| 2026-04-26 22:17 | 25.25597 | 55.34979 | 30 ft | 19 kts | 31° |
| 2026-04-26 22:17 | 25.25672 | 55.35074 | 26 ft | 17 kts | 96° |
| 2026-04-26 22:17 | 25.25727 | 55.35180 | 30 ft | 17 kts | 33° |
| 2026-04-26 22:18 | 25.25828 | 55.35247 | 29 ft | 17 kts | 31° |
| 2026-04-26 22:18 | 25.25929 | 55.35315 | 26 ft | 17 kts | 31° |
| 2026-04-26 22:18 | 25.26002 | 55.35413 | 27 ft | 17 kts | 71° |
| 2026-04-26 22:18 | 25.25993 | 55.35541 | 28 ft | 17 kts | 112° |
| 2026-04-26 22:19 | 25.25933 | 55.35654 | 28 ft | 17 kts | 121° |
| 2026-04-26 22:19 | 25.25873 | 55.35764 | 28 ft | 17 kts | 121° |
| 2026-04-26 22:19 | 25.25809 | 55.35875 | 28 ft | 17 kts | 122° |
| 2026-04-26 22:19 | 25.25747 | 55.35986 | 28 ft | 17 kts | 122° |
| 2026-04-26 22:20 | 25.25686 | 55.36096 | 28 ft | 17 kts | 121° |
| 2026-04-26 22:20 | 25.25622 | 55.36205 | 29 ft | 17 kts | 123° |
| 2026-04-26 22:20 | 25.25561 | 55.36318 | 28 ft | 17 kts | 121° |
| 2026-04-26 22:20 | 25.25499 | 55.36428 | 29 ft | 17 kts | 121° |
| 2026-04-26 22:21 | 25.25436 | 55.36539 | 29 ft | 17 kts | 122° |
| 2026-04-26 22:21 | 25.25374 | 55.36650 | 28 ft | 17 kts | 121° |
| 2026-04-26 22:21 | 25.25312 | 55.36760 | 29 ft | 17 kts | 122° |
| 2026-04-26 22:21 | 25.25250 | 55.36871 | 29 ft | 17 kts | 122° |
| 2026-04-26 22:22 | 25.25188 | 55.36982 | 29 ft | 17 kts | 121° |
| 2026-04-26 22:22 | 25.25126 | 55.37092 | 30 ft | 17 kts | 122° |
| 2026-04-26 22:22 | 25.25063 | 55.37203 | 30 ft | 17 kts | 121° |
| 2026-04-26 22:22 | 25.25001 | 55.37315 | 30 ft | 17 kts | 121° |
| 2026-04-26 22:23 | 25.24940 | 55.37424 | 30 ft | 17 kts | 122° |
| 2026-04-26 22:23 | 25.24877 | 55.37535 | 30 ft | 17 kts | 122° |
| 2026-04-26 22:23 | 25.24815 | 55.37645 | 30 ft | 17 kts | 122° |
| 2026-04-26 22:23 | 25.24753 | 55.37756 | 30 ft | 17 kts | 121° |
| 2026-04-26 22:24 | 25.24692 | 55.37864 | 29 ft | 15 kts | 122° |
| 2026-04-26 22:24 | 25.24675 | 55.37935 | 29 ft | 9 kts | 75° |
| 2026-04-26 22:24 | 25.24716 | 55.37986 | 31 ft | 9 kts | 33° |
| 2026-04-26 22:24 | 25.24776 | 55.38008 | 34 ft | 10 kts | 2° |
| 2026-04-26 22:25 | 25.24843 | 55.37959 | 35 ft | 18 kts | 305° |
| 2026-04-26 22:25 | 25.25009 | 55.37661 | 35 ft | 85 kts | 301° |
| 2026-04-26 22:25 | 25.25448 | 55.36870 | 34 ft | 157 kts | 301° |
| 2026-04-26 22:25 | 25.26099 | 55.35715 | 373 ft | 180 kts | 301° |
| 2026-04-26 22:26 | 25.26766 | 55.34597 | 1248 ft | 169 kts | 302° |
| 2026-04-26 22:26 | 25.27389 | 55.33467 | 1900 ft | 176 kts | 300° |
| 2026-04-26 22:26 | 25.28032 | 55.32281 | 2416 ft | 186 kts | 301° |
| 2026-04-26 22:26 | 25.28716 | 55.31035 | 2994 ft | 192 kts | 301° |
| 2026-04-26 22:27 | 25.29220 | 55.29674 | 3517 ft | 195 kts | 275° |
| 2026-04-26 22:27 | 25.29022 | 55.28198 | 4103 ft | 200 kts | 250° |
| 2026-04-26 22:27 | 25.28430 | 55.26799 | 4627 ft | 204 kts | 249° |
| 2026-04-26 22:27 | 25.27816 | 55.25353 | 5249 ft | 206 kts | 248° |
| 2026-04-26 22:28 | 25.27210 | 55.23929 | 5936 ft | 205 kts | 248° |
| 2026-04-26 22:28 | 25.26604 | 55.22506 | 6545 ft | 205 kts | 248° |
| 2026-04-26 22:28 | 25.25993 | 55.21073 | 7072 ft | 211 kts | 248° |
| 2026-04-26 22:28 | 25.25338 | 55.19531 | 7316 ft | 232 kts | 247° |
| 2026-04-26 22:29 | 25.24551 | 55.17930 | 7768 ft | 243 kts | 231° |
| 2026-04-26 22:29 | 25.23145 | 55.16872 | 8309 ft | 257 kts | 199° |
| 2026-04-26 22:29 | 25.21314 | 55.16712 | 8829 ft | 270 kts | 180° |
| 2026-04-26 22:29 | 25.19442 | 55.17069 | 9422 ft | 279 kts | 158° |
| 2026-04-26 22:30 | 25.17877 | 55.18380 | 9922 ft | 297 kts | 128° |
| 2026-04-26 22:30 | 25.16826 | 55.20399 | 10357 ft | 308 kts | 118° |
| 2026-04-26 22:30 | 25.15844 | 55.22533 | 11022 ft | 316 kts | 118° |
| 2026-04-26 22:30 | 25.14824 | 55.24709 | 11883 ft | 319 kts | 118° |
| 2026-04-26 22:31 | 25.13800 | 55.26867 | 12811 ft | 322 kts | 119° |
| 2026-04-26 22:31 | 25.12747 | 55.29073 | 13735 ft | 326 kts | 119° |
| 2026-04-26 22:31 | 25.11681 | 55.31291 | 14553 ft | 331 kts | 120° |
| 2026-04-26 22:31 | 25.10594 | 55.33563 | 15413 ft | 335 kts | 119° |
| 2026-04-26 22:32 | 25.09603 | 55.35891 | 16270 ft | 340 kts | 117° |
| 2026-04-26 22:32 | 25.08633 | 55.38301 | 17133 ft | 345 kts | 117° |
| 2026-04-26 22:32 | 25.07654 | 55.40717 | 17997 ft | 349 kts | 118° |
| 2026-04-26 22:32 | 25.06656 | 55.43207 | 18659 ft | 360 kts | 117° |
| 2026-04-26 22:33 | 25.05648 | 55.45824 | 18849 ft | 386 kts | 116° |
| 2026-04-26 22:33 | 25.03433 | 55.51626 | 19176 ft | 434 kts | 116° |
| 2026-04-26 22:33 | 25.02222 | 55.54772 | 19516 ft | 449 kts | 116° |
| 2026-04-26 22:34 | 25.00858 | 55.57864 | 19991 ft | 456 kts | 122° |
| 2026-04-26 22:34 | 24.99192 | 55.60890 | 20597 ft | 461 kts | 126° |
| 2026-04-26 22:34 | 24.97467 | 55.63858 | 21247 ft | 465 kts | 125° |
| 2026-04-26 22:34 | 24.95747 | 55.66919 | 21913 ft | 470 kts | 124° |
| 2026-04-26 22:35 | 24.94063 | 55.70005 | 22523 ft | 476 kts | 124° |
| 2026-04-26 22:35 | 24.92212 | 55.73064 | 23096 ft | 480 kts | 129° |
| 2026-04-26 22:35 | 24.90229 | 55.76002 | 23633 ft | 484 kts | 130° |
| 2026-04-26 22:35 | 24.88167 | 55.78980 | 24160 ft | 488 kts | 130° |
| 2026-04-26 22:36 | 24.86115 | 55.82000 | 24714 ft | 491 kts | 129° |
| 2026-04-26 22:36 | 24.84110 | 55.85013 | 25241 ft | 494 kts | 129° |
| 2026-04-26 22:36 | 24.82058 | 55.88088 | 25761 ft | 495 kts | 130° |
| 2026-04-26 22:36 | 24.79725 | 55.90833 | 26065 ft | 493 kts | 146° |
| 2026-04-26 22:37 | 24.76794 | 55.92680 | 26463 ft | 487 kts | 163° |
| 2026-04-26 22:37 | 24.73530 | 55.93662 | 27012 ft | 480 kts | 176° |
| 2026-04-26 22:37 | 24.70252 | 55.93779 | 27542 ft | 475 kts | 187° |
| 2026-04-26 22:37 | 24.66946 | 55.93552 | 27919 ft | 481 kts | 187° |
| 2026-04-26 22:38 | 24.63576 | 55.93211 | 27893 ft | 486 kts | 194° |
| 2026-04-26 22:38 | 24.60356 | 55.92204 | 27903 ft | 483 kts | 205° |
| 2026-04-26 22:38 | 24.57333 | 55.90611 | 27896 ft | 480 kts | 213° |
| 2026-04-26 22:38 | 24.54693 | 55.88475 | 27908 ft | 475 kts | 224° |
| 2026-04-26 22:39 | 24.52270 | 55.86070 | 27914 ft | 474 kts | 225° |
| 2026-04-26 22:39 | 24.49796 | 55.83588 | 27899 ft | 474 kts | 225° |
| 2026-04-26 22:39 | 24.47340 | 55.81159 | 27898 ft | 475 kts | 224° |
| 2026-04-26 22:39 | 24.44871 | 55.78757 | 27898 ft | 475 kts | 224° |
| 2026-04-26 22:40 | 24.42377 | 55.76360 | 27894 ft | 475 kts | 223° |
| 2026-04-26 22:40 | 24.39874 | 55.73965 | 27892 ft | 475 kts | 223° |
| 2026-04-26 22:40 | 24.37409 | 55.71606 | 27892 ft | 475 kts | 223° |
| 2026-04-26 22:40 | 24.34922 | 55.69214 | 27888 ft | 476 kts | 224° |
| 2026-04-26 22:41 | 24.32431 | 55.66807 | 27883 ft | 476 kts | 224° |
| 2026-04-26 22:41 | 24.29925 | 55.64407 | 27880 ft | 477 kts | 222° |
| 2026-04-26 22:41 | 24.27246 | 55.62311 | 27879 ft | 480 kts | 214° |
| 2026-04-26 22:41 | 24.24284 | 55.60563 | 27891 ft | 483 kts | 208° |
| 2026-04-26 22:42 | 24.21180 | 55.59120 | 27888 ft | 486 kts | 202° |
| 2026-04-26 22:42 | 24.17959 | 55.58082 | 27891 ft | 488 kts | 198° |
| 2026-04-26 22:42 | 24.14647 | 55.57150 | 27895 ft | 489 kts | 197° |
| 2026-04-26 22:42 | 24.11369 | 55.56235 | 27889 ft | 489 kts | 198° |
| 2026-04-26 22:43 | 24.08062 | 55.55290 | 27888 ft | 489 kts | 198° |
| 2026-04-26 22:43 | 24.04810 | 55.54335 | 27890 ft | 489 kts | 198° |
| 2026-04-26 22:43 | 24.01507 | 55.53356 | 27892 ft | 489 kts | 198° |
| 2026-04-26 22:43 | 23.98249 | 55.52386 | 27895 ft | 489 kts | 198° |
| 2026-04-26 22:44 | 23.94962 | 55.51406 | 27903 ft | 490 kts | 198° |
| 2026-04-26 22:44 | 23.91643 | 55.50416 | 28181 ft | 494 kts | 198° |
| 2026-04-26 22:44 | 23.88308 | 55.49424 | 28549 ft | 496 kts | 198° |
| 2026-04-26 22:44 | 23.84969 | 55.48431 | 28926 ft | 497 kts | 198° |
| 2026-04-26 22:45 | 23.81660 | 55.47447 | 29429 ft | 495 kts | 198° |
| 2026-04-26 22:45 | 23.78340 | 55.46459 | 29995 ft | 493 kts | 198° |
| 2026-04-26 22:45 | 23.75023 | 55.45470 | 30445 ft | 492 kts | 198° |
| 2026-04-26 22:45 | 23.71752 | 55.44495 | 30891 ft | 491 kts | 198° |
| 2026-04-26 22:46 | 23.68448 | 55.43511 | 31320 ft | 491 kts | 198° |
| 2026-04-26 22:46 | 23.65145 | 55.42527 | 31744 ft | 490 kts | 199° |
| 2026-04-26 22:46 | 23.61850 | 55.41547 | 32173 ft | 490 kts | 199° |
| 2026-04-26 22:46 | 23.58554 | 55.40566 | 32606 ft | 489 kts | 199° |
| 2026-04-26 22:47 | 23.55306 | 55.39601 | 33011 ft | 489 kts | 199° |
| 2026-04-26 22:47 | 23.52010 | 55.38623 | 33413 ft | 489 kts | 199° |
| 2026-04-26 22:47 | 23.48707 | 55.37645 | 33798 ft | 489 kts | 199° |
| 2026-04-26 22:47 | 23.45455 | 55.36687 | 34129 ft | 489 kts | 199° |
| 2026-04-26 22:48 | 23.42138 | 55.35712 | 34413 ft | 491 kts | 199° |
| 2026-04-26 22:48 | 23.38837 | 55.34742 | 34677 ft | 492 kts | 199° |
| 2026-04-26 22:48 | 23.35557 | 55.33778 | 34963 ft | 493 kts | 200° |
| 2026-04-26 22:48 | 23.32237 | 55.32803 | 35274 ft | 493 kts | 200° |
| 2026-04-26 22:49 | 23.28909 | 55.31825 | 35558 ft | 493 kts | 200° |
| 2026-04-26 22:49 | 23.25581 | 55.30848 | 35827 ft | 494 kts | 200° |
| 2026-04-26 22:49 | 23.22281 | 55.29879 | 36095 ft | 495 kts | 200° |
| 2026-04-26 22:49 | 23.18981 | 55.28911 | 36377 ft | 495 kts | 200° |
| 2026-04-26 22:50 | 23.15627 | 55.27927 | 36644 ft | 496 kts | 201° |
| 2026-04-26 22:50 | 23.12289 | 55.26949 | 36904 ft | 497 kts | 201° |
| 2026-04-26 22:50 | 23.09003 | 55.25919 | 37116 ft | 491 kts | 207° |
| 2026-04-26 22:50 | 23.06035 | 55.24160 | 37209 ft | 478 kts | 225° |
| 2026-04-26 22:51 | 23.03750 | 55.21618 | 37446 ft | 465 kts | 239° |
| 2026-04-26 22:51 | 23.02080 | 55.18702 | 37711 ft | 456 kts | 250° |
| 2026-04-26 22:51 | 23.01019 | 55.15496 | 37804 ft | 446 kts | 263° |
| 2026-04-26 22:52 | 22.99803 | 55.08868 | 37858 ft | 450 kts | 263° |
| 2026-04-26 22:52 | 22.98567 | 55.02238 | 37851 ft | 445 kts | 263° |
| 2026-04-26 22:53 | 22.97296 | 54.95684 | 37847 ft | 443 kts | 262° |
| 2026-04-26 22:53 | 22.96009 | 54.89160 | 37842 ft | 442 kts | 262° |
| 2026-04-26 22:54 | 22.94719 | 54.82653 | 37841 ft | 442 kts | 262° |
| 2026-04-26 22:54 | 22.93421 | 54.76112 | 37842 ft | 443 kts | 262° |
| 2026-04-26 22:55 | 22.92124 | 54.69589 | 37841 ft | 445 kts | 262° |
| 2026-04-26 22:55 | 22.90810 | 54.62999 | 37847 ft | 447 kts | 262° |
| 2026-04-26 22:56 | 22.89493 | 54.56410 | 37844 ft | 448 kts | 262° |
| 2026-04-26 22:56 | 22.88171 | 54.49806 | 37845 ft | 449 kts | 262° |
| 2026-04-26 22:57 | 22.86843 | 54.43191 | 37845 ft | 449 kts | 262° |
| 2026-04-26 22:57 | 22.85504 | 54.36540 | 37847 ft | 449 kts | 262° |
| 2026-04-26 22:58 | 22.84175 | 54.29945 | 37843 ft | 450 kts | 262° |
| 2026-04-26 22:58 | 22.82840 | 54.23340 | 37845 ft | 449 kts | 262° |
| 2026-04-26 22:59 | 22.81499 | 54.16713 | 37851 ft | 449 kts | 262° |
| 2026-04-26 22:59 | 22.80162 | 54.10123 | 37846 ft | 448 kts | 262° |
| 2026-04-26 23:00 | 22.78828 | 54.03553 | 37849 ft | 447 kts | 263° |
| 2026-04-26 23:00 | 22.78110 | 53.96894 | 37857 ft | 441 kts | 272° |